»·PEaware :: N623JB KBUR-KLAS

N623JB :: KBUR-KLAS

FLIGHT INFORMATION

Flight Status: Arrived
Operator: Privately registered:
United States
More flights under this callsign
Pilot: Jonathan B. (32222)
Aircraft: CIRRUS SR-22
(SR22)
More flights by this aircraft type
Origin: KBUR Bob Hope-Burbank
United States
Destination: KLAS McCarran Intl
United States
More flights between these airports :: More routes between these airports
Route: +VNY3 DAG CRESO4
File this flight plan on PilotEdge
Remarks:
Altitude:
(Current/Filed)
13,000ft
Speed:
(Current/Filed)
170kts
Departed: 19-Nov-20 12:44 PM
Arrived: 19-Nov-20 02:06 PM
Distance/Time
Traveled:
194nm/1:22
Distance/Time
To Go:
Arrived

Flight Plot

Page will automatically refresh every two minutes.

Flight plan parsing failed; only flown route is shown


Map Options




Map Legend


Flown Route
Filed Route
Departure Airport
Arrival Airport
Navaid (VOR, NDB)
Fix

Horizontal Profiles

Position Reports

Time Latitude Longitude Heading Altitude Ground
Speed
19-Nov-20 12:16 34.199447 -118.359436 177 717ft 0kts
19-Nov-20 12:17 34.199447 -118.359436 177 717ft 0kts
19-Nov-20 12:18 34.199447 -118.359436 177 717ft 0kts
19-Nov-20 12:19 34.199447 -118.359436 177 717ft 0kts
19-Nov-20 12:20 34.199447 -118.359436 177 717ft 0kts
19-Nov-20 12:21 34.199447 -118.359436 177 717ft 0kts
19-Nov-20 12:22 34.199447 -118.359436 177 717ft 0kts
19-Nov-20 12:23 34.199447 -118.359436 177 717ft 0kts
19-Nov-20 12:24 34.199447 -118.359436 177 717ft 0kts
19-Nov-20 12:25 34.199447 -118.359436 177 717ft 0kts
19-Nov-20 12:26 34.199447 -118.359436 177 717ft 0kts
19-Nov-20 12:27 34.199447 -118.359436 177 717ft 0kts
19-Nov-20 12:28 34.199535 -118.358351 94 718ft 7kts
19-Nov-20 12:29 34.201138 -118.358521 349 723ft 5kts
19-Nov-20 12:30 34.202444 -118.358882 346 727ft 4kts
19-Nov-20 12:31 34.203596 -118.359185 345 733ft 5kts
19-Nov-20 12:32 34.205605 -118.359777 340 744ft 10kts
19-Nov-20 12:33 34.209541 -118.360837 347 769ft 12kts
19-Nov-20 12:34 34.211562 -118.361206 45 780ft 0kts
19-Nov-20 12:35 34.211562 -118.361206 45 780ft 0kts
19-Nov-20 12:36 34.211562 -118.361206 45 780ft 0kts
19-Nov-20 12:37 34.211562 -118.361206 45 780ft 0kts
19-Nov-20 12:38 34.211562 -118.361206 45 780ft 0kts
19-Nov-20 12:39 34.211562 -118.361206 45 780ft 0kts
19-Nov-20 12:40 34.211562 -118.361206 45 780ft 0kts
19-Nov-20 12:41 34.211562 -118.361206 45 780ft 0kts
19-Nov-20 12:42 34.211835 -118.360761 78 780ft 8kts
19-Nov-20 12:43 34.197973 -118.356495 168 840ft 111kts
19-Nov-20 12:44 34.176459 -118.369846 226 2478ft 88kts
19-Nov-20 12:45 34.158293 -118.389355 226 3961ft 88kts
19-Nov-20 12:46 34.145260 -118.411356 317 5413ft 92kts
19-Nov-20 12:47 34.171942 -118.414290 353 6897ft 98kts
19-Nov-20 12:48 34.199686 -118.415120 352 8373ft 100kts
19-Nov-20 12:49 34.227949 -118.416511 352 9835ft 102kts
19-Nov-20 12:50 34.258858 -118.419876 347 10919ft 142kts
19-Nov-20 12:51 34.303113 -118.428968 346 11684ft 140kts
19-Nov-20 12:52 34.340131 -118.438302 343 12944ft 162kts
19-Nov-20 12:54 34.389414 -118.451674 9 12972ft 194kts
19-Nov-20 12:55 34.425605 -118.403393 54 12912ft 202kts
19-Nov-20 12:56 34.454471 -118.348127 57 12893ft 194kts
19-Nov-20 12:57 34.483789 -118.294855 49 12970ft 185kts
19-Nov-20 12:58 34.515556 -118.245457 50 12938ft 187kts
19-Nov-20 12:59 34.547651 -118.196359 48 13008ft 184kts
19-Nov-20 13:00 34.579945 -118.148200 55 12970ft 187kts
19-Nov-20 13:01 34.609374 -118.096340 50 12990ft 186kts
19-Nov-20 13:02 34.629131 -118.039417 76 12997ft 188kts
19-Nov-20 13:03 34.640320 -117.977303 85 12991ft 189kts
19-Nov-20 13:04 34.646995 -117.914035 80 13021ft 189kts
19-Nov-20 13:05 34.652504 -117.850379 83 12998ft 189kts
19-Nov-20 13:06 34.659707 -117.786924 82 13013ft 188kts
19-Nov-20 13:07 34.672418 -117.724832 73 12996ft 189kts
19-Nov-20 13:07 34.685190 -117.674008 72 12980ft 190kts
19-Nov-20 13:09 34.702756 -117.602262 73 13005ft 194kts
19-Nov-20 13:09 34.716156 -117.548339 65 12974ft 202kts
19-Nov-20 13:11 34.739443 -117.474115 77 12988ft 203kts
19-Nov-20 13:11 34.750355 -117.418652 76 13017ft 202kts
19-Nov-20 13:13 34.768816 -117.342433 75 13060ft 202kts
19-Nov-20 13:13 34.782873 -117.287958 72 13025ft 204kts
19-Nov-20 13:14 34.799919 -117.222096 71 12997ft 203kts
19-Nov-20 13:15 34.816115 -117.156260 72 13005ft 203kts
19-Nov-20 13:16 34.832861 -117.090328 70 12940ft 205kts
19-Nov-20 13:17 34.851160 -117.025657 71 13037ft 200kts
19-Nov-20 13:19 34.871074 -116.949158 73 13000ft 202kts
19-Nov-20 13:19 34.883675 -116.894058 74 13061ft 200kts
19-Nov-20 13:20 34.897449 -116.826756 71 13028ft 206kts
19-Nov-20 13:21 34.916149 -116.760142 70 12919ft 210kts
19-Nov-20 13:22 34.934144 -116.693249 71 13012ft 204kts
19-Nov-20 13:23 34.950898 -116.626551 72 13001ft 206kts
19-Nov-20 13:24 34.972328 -116.561596 64 12967ft 207kts
19-Nov-20 13:25 34.996352 -116.498110 59 13017ft 204kts
19-Nov-20 13:26 35.023983 -116.436118 61 13000ft 208kts
19-Nov-20 13:27 35.050644 -116.373638 61 13053ft 207kts
19-Nov-20 13:28 35.078227 -116.311024 60 13060ft 208kts
19-Nov-20 13:29 35.105287 -116.248100 56 13028ft 207kts
19-Nov-20 13:30 35.134265 -116.186427 57 12985ft 209kts
19-Nov-20 13:31 35.162291 -116.124251 60 12979ft 209kts
19-Nov-20 13:32 35.189587 -116.061389 60 12917ft 211kts
19-Nov-20 13:33 35.217131 -115.998678 60 12975ft 207kts
19-Nov-20 13:34 35.244026 -115.936214 62 12673ft 204kts
19-Nov-20 13:35 35.269269 -115.874841 60 12054ft 202kts
19-Nov-20 13:36 35.295651 -115.815205 59 11429ft 197kts
19-Nov-20 13:37 35.327704 -115.761584 49 10858ft 191kts
19-Nov-20 13:38 35.362031 -115.713511 44 10476ft 187kts
19-Nov-20 13:39 35.398561 -115.668758 46 10106ft 185kts
19-Nov-20 13:40 35.432006 -115.619734 48 10028ft 187kts
19-Nov-20 13:41 35.465396 -115.570609 46 9941ft 188kts
19-Nov-20 13:42 35.500945 -115.524863 42 9994ft 185kts
19-Nov-20 13:43 35.535706 -115.478809 47 9750ft 186kts
19-Nov-20 13:44 35.571094 -115.429506 48 9172ft 191kts
19-Nov-20 13:45 35.607827 -115.381895 40 8292ft 186kts
19-Nov-20 13:46 35.643366 -115.337981 47 7256ft 174kts
19-Nov-20 13:47 35.673578 -115.294100 47 7007ft 162kts
19-Nov-20 13:48 35.700988 -115.251138 50 6981ft 159kts
19-Nov-20 13:49 35.727898 -115.208336 48 7015ft 156kts
19-Nov-20 13:50 35.758980 -115.169806 41 7022ft 161kts
19-Nov-20 13:51 35.798149 -115.147778 12 7040ft 156kts
19-Nov-20 13:52 35.840183 -115.131393 13 7005ft 164kts
19-Nov-20 13:53 35.883716 -115.117600 10 6974ft 156kts
19-Nov-20 13:54 35.926081 -115.104352 9 6977ft 153kts
19-Nov-20 13:55 35.968413 -115.088623 14 6464ft 160kts
19-Nov-20 13:56 36.010002 -115.071898 13 5378ft 148kts
19-Nov-20 13:57 36.046574 -115.058972 12 5261ft 125kts
19-Nov-20 13:58 36.079649 -115.046558 13 5277ft 121kts
19-Nov-20 13:59 36.112059 -115.032965 12 4904ft 119kts
19-Nov-20 14:00 36.133995 -115.052067 304 4516ft 97kts
19-Nov-20 14:01 36.148765 -115.076429 301 4162ft 87kts
19-Nov-20 14:02 36.151282 -115.105416 247 3691ft 99kts
19-Nov-20 14:03 36.134812 -115.132739 223 3176ft 101kts
19-Nov-20 14:04 36.110828 -115.150000 205 2403ft 95kts
19-Nov-20 14:05 36.091442 -115.161157 206 2128ft 34kts
19-Nov-20 14:06 36.089372 -115.163439 295 2143ft 0kts
19-Nov-20 14:07 36.089570 -115.164011 295 2142ft 13kts
19-Nov-20 14:08 36.091939 -115.163265 25 2125ft 27kts
19-Nov-20 14:09 36.097406 -115.161227 210 2101ft 16kts
19-Nov-20 14:10 36.096688 -115.162843 11 2105ft 2kts
19-Nov-20 14:11 36.096841 -115.162818 1 2105ft 0kts

Navigation Log

Ident Type
Flight plan parsing failed, navigation log unavailable